sensor_id;sensor_type;location;lat;lon;timestamp;temperature;humidity
68248;SHT30;55064;49.636;12.164;2023-03-05T00:02:15;1.32;89.73
68248;SHT30;55064;49.636;12.164;2023-03-05T00:04:41;1.32;89.62
68248;SHT30;55064;49.636;12.164;2023-03-05T00:07:09;1.31;89.82
68248;SHT30;55064;49.636;12.164;2023-03-05T00:09:39;1.31;89.78
68248;SHT30;55064;49.636;12.164;2023-03-05T00:12:04;1.32;89.79
68248;SHT30;55064;49.636;12.164;2023-03-05T00:14:32;1.34;89.56
68248;SHT30;55064;49.636;12.164;2023-03-05T00:16:59;1.28;89.78
68248;SHT30;55064;49.636;12.164;2023-03-05T00:19:26;1.28;89.90
68248;SHT30;55064;49.636;12.164;2023-03-05T00:21:53;1.24;90.16
68248;SHT30;55064;49.636;12.164;2023-03-05T00:24:23;1.27;89.91
68248;SHT30;55064;49.636;12.164;2023-03-05T00:26:49;1.27;89.85
68248;SHT30;55064;49.636;12.164;2023-03-05T00:29:16;1.27;90.07
68248;SHT30;55064;49.636;12.164;2023-03-05T00:31:44;1.30;90.14
68248;SHT30;55064;49.636;12.164;2023-03-05T00:34:12;1.28;90.42
68248;SHT30;55064;49.636;12.164;2023-03-05T00:36:39;1.27;90.40
68248;SHT30;55064;49.636;12.164;2023-03-05T00:39:05;1.28;90.28
68248;SHT30;55064;49.636;12.164;2023-03-05T00:41:30;1.27;90.43
68248;SHT30;55064;49.636;12.164;2023-03-05T00:43:58;1.28;90.50
68248;SHT30;55064;49.636;12.164;2023-03-05T00:46:24;1.27;90.74
68248;SHT30;55064;49.636;12.164;2023-03-05T00:48:52;1.24;90.18
68248;SHT30;55064;49.636;12.164;2023-03-05T00:51:18;1.24;90.69
68248;SHT30;55064;49.636;12.164;2023-03-05T00:53:43;1.21;90.64
68248;SHT30;55064;49.636;12.164;2023-03-05T00:56:09;1.22;90.65
68248;SHT30;55064;49.636;12.164;2023-03-05T00:58:40;1.20;91.07
68248;SHT30;55064;49.636;12.164;2023-03-05T01:01:06;1.20;91.03
68248;SHT30;55064;49.636;12.164;2023-03-05T01:03:32;1.18;91.02
68248;SHT30;55064;49.636;12.164;2023-03-05T01:06:04;1.20;91.18
68248;SHT30;55064;49.636;12.164;2023-03-05T01:08:30;1.18;91.30
68248;SHT30;55064;49.636;12.164;2023-03-05T01:10:55;1.15;91.07
68248;SHT30;55064;49.636;12.164;2023-03-05T01:13:21;1.15;91.51
68248;SHT30;55064;49.636;12.164;2023-03-05T01:15:47;1.17;91.67
68248;SHT30;55064;49.636;12.164;2023-03-05T01:18:15;1.15;91.34
68248;SHT30;55064;49.636;12.164;2023-03-05T01:20:41;1.15;91.28
68248;SHT30;55064;49.636;12.164;2023-03-05T01:23:08;1.15;91.62
68248;SHT30;55064;49.636;12.164;2023-03-05T01:25:33;1.15;91.74
68248;SHT30;55064;49.636;12.164;2023-03-05T01:28:01;1.13;92.02
68248;SHT30;55064;49.636;12.164;2023-03-05T01:30:30;1.11;91.80
68248;SHT30;55064;49.636;12.164;2023-03-05T01:32:55;1.13;92.06
68248;SHT30;55064;49.636;12.164;2023-03-05T01:35:23;1.13;91.78
68248;SHT30;55064;49.636;12.164;2023-03-05T01:37:51;1.11;91.62
68248;SHT30;55064;49.636;12.164;2023-03-05T01:40:27;1.14;91.99
68248;SHT30;55064;49.636;12.164;2023-03-05T01:43:07;1.14;92.11
68248;SHT30;55064;49.636;12.164;2023-03-05T01:48:52;1.17;91.92
68248;SHT30;55064;49.636;12.164;2023-03-05T01:51:19;1.15;91.67
68248;SHT30;55064;49.636;12.164;2023-03-05T01:53:49;1.18;91.85
68248;SHT30;55064;49.636;12.164;2023-03-05T01:56:15;1.15;92.06
68248;SHT30;55064;49.636;12.164;2023-03-05T01:58:42;1.14;91.80
68248;SHT30;55064;49.636;12.164;2023-03-05T02:01:11;1.17;91.75
68248;SHT30;55064;49.636;12.164;2023-03-05T02:03:41;1.15;92.20
68248;SHT30;55064;49.636;12.164;2023-03-05T02:06:06;1.15;91.98
68248;SHT30;55064;49.636;12.164;2023-03-05T02:08:33;1.17;91.85
68248;SHT30;55064;49.636;12.164;2023-03-05T02:10:58;1.17;91.96
68248;SHT30;55064;49.636;12.164;2023-03-05T02:13:28;1.20;92.11
68248;SHT30;55064;49.636;12.164;2023-03-05T02:15:57;1.17;92.19
68248;SHT30;55064;49.636;12.164;2023-03-05T02:18:24;1.13;91.93
68248;SHT30;55064;49.636;12.164;2023-03-05T02:23:30;1.17;92.08
68248;SHT30;55064;49.636;12.164;2023-03-05T02:25:58;1.15;92.17
68248;SHT30;55064;49.636;12.164;2023-03-05T02:30:49;1.22;92.14
68248;SHT30;55064;49.636;12.164;2023-03-05T02:33:16;1.18;92.03
68248;SHT30;55064;49.636;12.164;2023-03-05T02:35:42;1.17;92.32
68248;SHT30;55064;49.636;12.164;2023-03-05T02:38:08;1.17;92.16
68248;SHT30;55064;49.636;12.164;2023-03-05T02:40:34;1.22;92.04
68248;SHT30;55064;49.636;12.164;2023-03-05T02:42:59;1.20;91.86
68248;SHT30;55064;49.636;12.164;2023-03-05T02:45:25;1.20;92.18
68248;SHT30;55064;49.636;12.164;2023-03-05T02:47:50;1.15;92.38
68248;SHT30;55064;49.636;12.164;2023-03-05T02:50:18;1.18;92.27
68248;SHT30;55064;49.636;12.164;2023-03-05T02:52:43;1.15;92.35
68248;SHT30;55064;49.636;12.164;2023-03-05T02:55:09;1.18;92.51
68248;SHT30;55064;49.636;12.164;2023-03-05T02:57:39;1.21;92.65
68248;SHT30;55064;49.636;12.164;2023-03-05T03:00:05;1.20;92.55
68248;SHT30;55064;49.636;12.164;2023-03-05T03:02:33;1.15;92.70
68248;SHT30;55064;49.636;12.164;2023-03-05T03:04:59;1.13;92.88
68248;SHT30;55064;49.636;12.164;2023-03-05T03:07:24;1.14;92.79
68248;SHT30;55064;49.636;12.164;2023-03-05T03:09:52;1.11;93.07
68248;SHT30;55064;49.636;12.164;2023-03-05T03:12:17;1.11;93.01
68248;SHT30;55064;49.636;12.164;2023-03-05T03:14:46;1.08;93.02
68248;SHT30;55064;49.636;12.164;2023-03-05T03:17:13;1.14;92.91
68248;SHT30;55064;49.636;12.164;2023-03-05T03:19:42;1.13;92.67
68248;SHT30;55064;49.636;12.164;2023-03-05T03:22:09;1.15;92.56
68248;SHT30;55064;49.636;12.164;2023-03-05T03:24:36;1.13;92.40
68248;SHT30;55064;49.636;12.164;2023-03-05T03:27:02;1.14;92.23
68248;SHT30;55064;49.636;12.164;2023-03-05T03:29:32;1.17;92.19
68248;SHT30;55064;49.636;12.164;2023-03-05T03:31:58;1.18;92.19
68248;SHT30;55064;49.636;12.164;2023-03-05T03:34:23;1.17;92.10
68248;SHT30;55064;49.636;12.164;2023-03-05T03:36:49;1.14;91.97
68248;SHT30;55064;49.636;12.164;2023-03-05T03:39:16;1.15;91.78
68248;SHT30;55064;49.636;12.164;2023-03-05T03:41:48;1.13;91.66
68248;SHT30;55064;49.636;12.164;2023-03-05T03:44:15;1.13;91.54
68248;SHT30;55064;49.636;12.164;2023-03-05T03:46:43;1.15;90.98
68248;SHT30;55064;49.636;12.164;2023-03-05T03:49:20;1.14;90.85
68248;SHT30;55064;49.636;12.164;2023-03-05T03:51:46;1.11;91.09
68248;SHT30;55064;49.636;12.164;2023-03-05T03:54:13;1.13;90.79
68248;SHT30;55064;49.636;12.164;2023-03-05T03:56:38;1.17;90.27
68248;SHT30;55064;49.636;12.164;2023-03-05T03:59:04;1.15;89.82
68248;SHT30;55064;49.636;12.164;2023-03-05T04:01:29;1.17;89.67
68248;SHT30;55064;49.636;12.164;2023-03-05T04:03:54;1.13;89.69
68248;SHT30;55064;49.636;12.164;2023-03-05T04:06:22;1.11;89.28
68248;SHT30;55064;49.636;12.164;2023-03-05T04:08:47;1.11;89.10
68248;SHT30;55064;49.636;12.164;2023-03-05T04:11:15;1.11;88.84
68248;SHT30;55064;49.636;12.164;2023-03-05T04:13:43;1.13;88.51
68248;SHT30;55064;49.636;12.164;2023-03-05T04:16:09;1.11;88.16
68248;SHT30;55064;49.636;12.164;2023-03-05T04:18:37;1.09;87.93
68248;SHT30;55064;49.636;12.164;2023-03-05T04:21:02;1.13;87.87
68248;SHT30;55064;49.636;12.164;2023-03-05T04:23:31;1.15;87.00
68248;SHT30;55064;49.636;12.164;2023-03-05T04:25:56;1.11;87.12
68248;SHT30;55064;49.636;12.164;2023-03-05T04:28:22;1.13;86.82
68248;SHT30;55064;49.636;12.164;2023-03-05T04:30:50;1.14;86.63
68248;SHT30;55064;49.636;12.164;2023-03-05T04:33:15;1.14;86.44
68248;SHT30;55064;49.636;12.164;2023-03-05T04:35:41;1.11;86.58
68248;SHT30;55064;49.636;12.164;2023-03-05T04:38:06;1.11;86.69
68248;SHT30;55064;49.636;12.164;2023-03-05T04:40:33;1.09;86.54
68248;SHT30;55064;49.636;12.164;2023-03-05T04:43:01;1.11;86.45
68248;SHT30;55064;49.636;12.164;2023-03-05T04:45:26;1.05;86.33
68248;SHT30;55064;49.636;12.164;2023-03-05T04:47:54;1.08;86.01
68248;SHT30;55064;49.636;12.164;2023-03-05T04:50:26;1.05;85.97
68248;SHT30;55064;49.636;12.164;2023-03-05T04:52:51;1.11;85.66
68248;SHT30;55064;49.636;12.164;2023-03-05T04:55:19;1.04;85.75
68248;SHT30;55064;49.636;12.164;2023-03-05T04:57:46;1.05;85.50
68248;SHT30;55064;49.636;12.164;2023-03-05T05:00:15;1.03;85.52
68248;SHT30;55064;49.636;12.164;2023-03-05T05:02:45;1.03;85.41
68248;SHT30;55064;49.636;12.164;2023-03-05T05:05:22;1.03;85.29
68248;SHT30;55064;49.636;12.164;2023-03-05T05:07:48;1.00;85.47
68248;SHT30;55064;49.636;12.164;2023-03-05T05:10:14;0.97;85.51
68248;SHT30;55064;49.636;12.164;2023-03-05T05:12:40;1.01;85.32
68248;SHT30;55064;49.636;12.164;2023-03-05T05:15:06;0.98;85.07
68248;SHT30;55064;49.636;12.164;2023-03-05T05:17:32;1.00;85.23
68248;SHT30;55064;49.636;12.164;2023-03-05T05:20:01;0.97;85.25
68248;SHT30;55064;49.636;12.164;2023-03-05T05:22:29;0.98;85.19
68248;SHT30;55064;49.636;12.164;2023-03-05T05:24:54;0.96;84.98
68248;SHT30;55064;49.636;12.164;2023-03-05T05:27:20;0.96;85.17
68248;SHT30;55064;49.636;12.164;2023-03-05T05:29:45;0.96;85.16
68248;SHT30;55064;49.636;12.164;2023-03-05T05:32:17;0.97;84.68
68248;SHT30;55064;49.636;12.164;2023-03-05T05:34:43;0.96;84.80
68248;SHT30;55064;49.636;12.164;2023-03-05T05:37:10;0.94;84.77
68248;SHT30;55064;49.636;12.164;2023-03-05T05:39:35;0.98;84.75
68248;SHT30;55064;49.636;12.164;2023-03-05T05:42:01;0.97;84.71
68248;SHT30;55064;49.636;12.164;2023-03-05T05:44:27;0.97;84.68
68248;SHT30;55064;49.636;12.164;2023-03-05T05:46:53;0.98;84.51
68248;SHT30;55064;49.636;12.164;2023-03-05T05:49:19;0.98;84.53
68248;SHT30;55064;49.636;12.164;2023-03-05T05:51:44;0.94;84.85
68248;SHT30;55064;49.636;12.164;2023-03-05T05:54:12;0.96;84.92
68248;SHT30;55064;49.636;12.164;2023-03-05T05:56:41;0.97;85.01
68248;SHT30;55064;49.636;12.164;2023-03-05T05:59:07;0.97;85.00
68248;SHT30;55064;49.636;12.164;2023-03-05T06:01:35;1.00;84.82
68248;SHT30;55064;49.636;12.164;2023-03-05T06:04:01;0.97;84.92
68248;SHT30;55064;49.636;12.164;2023-03-05T06:06:29;0.96;84.77
68248;SHT30;55064;49.636;12.164;2023-03-05T06:08:56;0.97;84.65
68248;SHT30;55064;49.636;12.164;2023-03-05T06:11:21;0.97;84.63
68248;SHT30;55064;49.636;12.164;2023-03-05T06:13:47;0.96;84.75
68248;SHT30;55064;49.636;12.164;2023-03-05T06:16:20;0.98;84.70
68248;SHT30;55064;49.636;12.164;2023-03-05T06:18:51;0.97;84.50
68248;SHT30;55064;49.636;12.164;2023-03-05T06:21:18;0.97;84.19
68248;SHT30;55064;49.636;12.164;2023-03-05T06:23:45;0.97;84.32
68248;SHT30;55064;49.636;12.164;2023-03-05T06:26:14;0.98;84.42
68248;SHT30;55064;49.636;12.164;2023-03-05T06:28:40;1.01;84.21
68248;SHT30;55064;49.636;12.164;2023-03-05T06:31:11;0.98;84.24
68248;SHT30;55064;49.636;12.164;2023-03-05T06:33:40;1.00;84.33
68248;SHT30;55064;49.636;12.164;2023-03-05T06:36:07;1.01;84.36
68248;SHT30;55064;49.636;12.164;2023-03-05T06:38:36;1.01;84.29
68248;SHT30;55064;49.636;12.164;2023-03-05T06:41:07;1.01;84.18
68248;SHT30;55064;49.636;12.164;2023-03-05T06:43:41;1.01;84.08
68248;SHT30;55064;49.636;12.164;2023-03-05T06:46:10;1.03;84.12
68248;SHT30;55064;49.636;12.164;2023-03-05T06:48:38;1.04;84.14
68248;SHT30;55064;49.636;12.164;2023-03-05T06:51:20;1.05;84.10
68248;SHT30;55064;49.636;12.164;2023-03-05T06:57:03;1.11;83.27
68248;SHT30;55064;49.636;12.164;2023-03-05T06:59:30;1.11;83.39
68248;SHT30;55064;49.636;12.164;2023-03-05T07:02:09;1.09;82.77
68248;SHT30;55064;49.636;12.164;2023-03-05T07:11:13;1.14;82.54
68248;SHT30;55064;49.636;12.164;2023-03-05T07:14:01;1.18;82.60
68248;SHT30;55064;49.636;12.164;2023-03-05T07:16:30;1.17;82.66
68248;SHT30;55064;49.636;12.164;2023-03-05T07:19:09;1.17;82.70
68248;SHT30;55064;49.636;12.164;2023-03-05T07:21:41;1.17;82.44
68248;SHT30;55064;49.636;12.164;2023-03-05T07:24:15;1.20;82.28
68248;SHT30;55064;49.636;12.164;2023-03-05T07:26:42;1.22;81.84
68248;SHT30;55064;49.636;12.164;2023-03-05T07:29:15;1.25;81.78
68248;SHT30;55064;49.636;12.164;2023-03-05T07:31:59;1.30;81.64
68248;SHT30;55064;49.636;12.164;2023-03-05T07:34:40;1.27;81.66
68248;SHT30;55064;49.636;12.164;2023-03-05T07:37:06;1.28;81.56
68248;SHT30;55064;49.636;12.164;2023-03-05T07:39:38;1.30;81.34
68248;SHT30;55064;49.636;12.164;2023-03-05T07:42:05;1.35;80.91
68248;SHT30;55064;49.636;12.164;2023-03-05T07:44:43;1.31;80.88
68248;SHT30;55064;49.636;12.164;2023-03-05T07:47:27;1.31;80.89
68248;SHT30;55064;49.636;12.164;2023-03-05T07:50:00;1.34;80.83
68248;SHT30;55064;49.636;12.164;2023-03-05T07:52:27;1.38;80.63
68248;SHT30;55064;49.636;12.164;2023-03-05T07:55:23;1.41;80.48
68248;SHT30;55064;49.636;12.164;2023-03-05T07:57:56;1.43;80.38
68248;SHT30;55064;49.636;12.164;2023-03-05T08:00:21;1.46;80.10
68248;SHT30;55064;49.636;12.164;2023-03-05T08:02:50;1.45;79.94
68248;SHT30;55064;49.636;12.164;2023-03-05T08:05:21;1.43;79.92
68248;SHT30;55064;49.636;12.164;2023-03-05T08:07:49;1.43;79.84
68248;SHT30;55064;49.636;12.164;2023-03-05T08:10:14;1.46;79.93
68248;SHT30;55064;49.636;12.164;2023-03-05T08:16:15;1.46;79.57
68248;SHT30;55064;49.636;12.164;2023-03-05T08:18:42;1.48;79.56
68248;SHT30;55064;49.636;12.164;2023-03-05T08:21:35;1.45;79.43
68248;SHT30;55064;49.636;12.164;2023-03-05T08:27:30;1.48;79.44
68248;SHT30;55064;49.636;12.164;2023-03-05T08:30:03;1.53;79.30
68248;SHT30;55064;49.636;12.164;2023-03-05T08:32:51;1.51;79.53
68248;SHT30;55064;49.636;12.164;2023-03-05T08:35:49;1.55;79.38
68248;SHT30;55064;49.636;12.164;2023-03-05T08:38:36;1.51;78.92
68248;SHT30;55064;49.636;12.164;2023-03-05T08:41:12;1.53;79.13
68248;SHT30;55064;49.636;12.164;2023-03-05T08:43:54;1.56;79.11
68248;SHT30;55064;49.636;12.164;2023-03-05T08:49:41;1.69;78.43
68248;SHT30;55064;49.636;12.164;2023-03-05T08:52:32;1.77;78.66
68248;SHT30;55064;49.636;12.164;2023-03-05T08:54:59;1.74;78.59
68248;SHT30;55064;49.636;12.164;2023-03-05T08:57:55;1.83;78.44
68248;SHT30;55064;49.636;12.164;2023-03-05T09:00:40;1.91;77.55
68248;SHT30;55064;49.636;12.164;2023-03-05T09:03:43;1.94;76.91
68248;SHT30;55064;49.636;12.164;2023-03-05T09:06:35;2.03;76.64
68248;SHT30;55064;49.636;12.164;2023-03-05T09:12:26;2.01;75.90
68248;SHT30;55064;49.636;12.164;2023-03-05T09:15:18;2.03;76.49
68248;SHT30;55064;49.636;12.164;2023-03-05T09:20:51;2.15;75.88
68248;SHT30;55064;49.636;12.164;2023-03-05T09:23:17;2.20;76.11
68248;SHT30;55064;49.636;12.164;2023-03-05T09:26:05;2.24;75.39
68248;SHT30;55064;49.636;12.164;2023-03-05T09:28:30;2.24;75.57
68248;SHT30;55064;49.636;12.164;2023-03-05T09:30:56;2.26;75.37
68248;SHT30;55064;49.636;12.164;2023-03-05T09:33:27;2.29;75.40
68248;SHT30;55064;49.636;12.164;2023-03-05T09:39:23;2.36;75.07
68248;SHT30;55064;49.636;12.164;2023-03-05T09:51:53;2.28;73.66
68248;SHT30;55064;49.636;12.164;2023-03-05T09:54:37;2.28;73.40
68248;SHT30;55064;49.636;12.164;2023-03-05T09:57:15;2.21;72.59
68248;SHT30;55064;49.636;12.164;2023-03-05T10:06:43;2.15;72.12
68248;SHT30;55064;49.636;12.164;2023-03-05T10:11:56;2.15;72.05
68248;SHT30;55064;49.636;12.164;2023-03-05T10:14:40;2.18;72.21
68248;SHT30;55064;49.636;12.164;2023-03-05T10:29:57;2.42;72.52
68248;SHT30;55064;49.636;12.164;2023-03-05T10:45:46;2.62;71.41
68248;SHT30;55064;49.636;12.164;2023-03-05T10:51:37;2.55;71.47
68248;SHT30;55064;49.636;12.164;2023-03-05T10:54:41;2.56;71.20
68248;SHT30;55064;49.636;12.164;2023-03-05T11:00:27;2.53;71.81
68248;SHT30;55064;49.636;12.164;2023-03-05T11:03:11;2.64;71.96
68248;SHT30;55064;49.636;12.164;2023-03-05T11:08:51;2.77;71.44
68248;SHT30;55064;49.636;12.164;2023-03-05T11:11:37;2.70;71.45
68248;SHT30;55064;49.636;12.164;2023-03-05T11:14:26;2.69;71.73
68248;SHT30;55064;49.636;12.164;2023-03-05T11:17:32;2.72;71.60
68248;SHT30;55064;49.636;12.164;2023-03-05T11:32:26;2.79;71.00
68248;SHT30;55064;49.636;12.164;2023-03-05T11:35:00;2.72;70.67
68248;SHT30;55064;49.636;12.164;2023-03-05T11:42:42;2.79;71.19
68248;SHT30;55064;49.636;12.164;2023-03-05T11:45:28;2.93;71.38
68248;SHT30;55064;49.636;12.164;2023-03-05T11:48:12;2.99;71.03
68248;SHT30;55064;49.636;12.164;2023-03-05T11:51:14;3.00;69.67
68248;SHT30;55064;49.636;12.164;2023-03-05T11:54:05;2.94;69.39
68248;SHT30;55064;49.636;12.164;2023-03-05T11:56:45;2.96;69.18
68248;SHT30;55064;49.636;12.164;2023-03-05T12:02:33;2.97;68.77
68248;SHT30;55064;49.636;12.164;2023-03-05T12:05:20;2.94;68.66
68248;SHT30;55064;49.636;12.164;2023-03-05T12:07:55;2.97;68.76
68248;SHT30;55064;49.636;12.164;2023-03-05T12:10:40;3.01;68.93
68248;SHT30;55064;49.636;12.164;2023-03-05T12:13:36;3.01;68.36
68248;SHT30;55064;49.636;12.164;2023-03-05T12:19:32;2.99;67.48
68248;SHT30;55064;49.636;12.164;2023-03-05T12:22:01;3.03;67.61
68248;SHT30;55064;49.636;12.164;2023-03-05T12:33:54;3.27;67.55
68248;SHT30;55064;49.636;12.164;2023-03-05T12:36:51;3.36;66.61
68248;SHT30;55064;49.636;12.164;2023-03-05T12:39:47;3.46;66.46
68248;SHT30;55064;49.636;12.164;2023-03-05T12:55:29;3.83;65.22
68248;SHT30;55064;49.636;12.164;2023-03-05T12:58:04;3.65;64.06
68248;SHT30;55064;49.636;12.164;2023-03-05T13:00:41;3.70;64.59
68248;SHT30;55064;49.636;12.164;2023-03-05T13:03:13;3.76;64.05
68248;SHT30;55064;49.636;12.164;2023-03-05T13:05:52;3.69;64.35
68248;SHT30;55064;49.636;12.164;2023-03-05T13:08:28;3.76;64.53
68248;SHT30;55064;49.636;12.164;2023-03-05T13:11:07;3.69;64.40
68248;SHT30;55064;49.636;12.164;2023-03-05T13:13:36;3.55;64.03
68248;SHT30;55064;49.636;12.164;2023-03-05T13:16:03;3.45;64.12
68248;SHT30;55064;49.636;12.164;2023-03-05T13:18:31;3.38;64.63
68248;SHT30;55064;49.636;12.164;2023-03-05T13:21:06;3.29;64.80
68248;SHT30;55064;49.636;12.164;2023-03-05T13:23:33;3.32;65.06
68248;SHT30;55064;49.636;12.164;2023-03-05T13:26:12;3.32;65.41
68248;SHT30;55064;49.636;12.164;2023-03-05T13:28:40;3.31;65.67
68248;SHT30;55064;49.636;12.164;2023-03-05T13:31:18;3.34;65.30
68248;SHT30;55064;49.636;12.164;2023-03-05T13:33:55;3.25;64.81
68248;SHT30;55064;49.636;12.164;2023-03-05T13:36:24;3.22;65.54
68248;SHT30;55064;49.636;12.164;2023-03-05T13:38:50;3.18;65.93
68248;SHT30;55064;49.636;12.164;2023-03-05T13:41:27;3.14;66.16
68248;SHT30;55064;49.636;12.164;2023-03-05T13:44:00;3.07;66.16
68248;SHT30;55064;49.636;12.164;2023-03-05T13:46:30;3.05;66.18
68248;SHT30;55064;49.636;12.164;2023-03-05T13:48:59;3.05;66.03
68248;SHT30;55064;49.636;12.164;2023-03-05T13:51:47;3.04;66.76
68248;SHT30;55064;49.636;12.164;2023-03-05T13:54:16;2.96;66.48
68248;SHT30;55064;49.636;12.164;2023-03-05T13:57:28;2.94;66.86
68248;SHT30;55064;49.636;12.164;2023-03-05T13:59:56;2.91;66.91
68248;SHT30;55064;49.636;12.164;2023-03-05T14:02:26;2.96;67.35
68248;SHT30;55064;49.636;12.164;2023-03-05T14:04:53;2.91;67.07
68248;SHT30;55064;49.636;12.164;2023-03-05T14:07:32;2.96;67.19
68248;SHT30;55064;49.636;12.164;2023-03-05T14:10:01;2.97;67.44
68248;SHT30;55064;49.636;12.164;2023-03-05T14:15:02;3.00;66.74
68248;SHT30;55064;49.636;12.164;2023-03-05T14:17:37;2.93;66.62
68248;SHT30;55064;49.636;12.164;2023-03-05T14:22:40;2.90;67.08
68248;SHT30;55064;49.636;12.164;2023-03-05T14:30:46;2.90;67.75
68248;SHT30;55064;49.636;12.164;2023-03-05T14:33:12;2.89;68.00
68248;SHT30;55064;49.636;12.164;2023-03-05T14:35:40;2.83;68.54
68248;SHT30;55064;49.636;12.164;2023-03-05T14:38:22;2.83;68.36
68248;SHT30;55064;49.636;12.164;2023-03-05T14:40:50;2.81;68.71
68248;SHT30;55064;49.636;12.164;2023-03-05T14:43:15;2.75;68.42
68248;SHT30;55064;49.636;12.164;2023-03-05T14:45:41;2.75;68.77
68248;SHT30;55064;49.636;12.164;2023-03-05T14:48:16;2.72;68.78
68248;SHT30;55064;49.636;12.164;2023-03-05T14:50:45;2.76;69.23
68248;SHT30;55064;49.636;12.164;2023-03-05T14:53:23;2.73;69.13
68248;SHT30;55064;49.636;12.164;2023-03-05T14:55:51;2.80;69.16
68248;SHT30;55064;49.636;12.164;2023-03-05T14:58:24;2.83;69.27
68248;SHT30;55064;49.636;12.164;2023-03-05T15:00:52;2.84;69.40
68248;SHT30;55064;49.636;12.164;2023-03-05T15:03:21;2.80;69.57
68248;SHT30;55064;49.636;12.164;2023-03-05T15:05:51;2.80;69.79
68248;SHT30;55064;49.636;12.164;2023-03-05T15:08:23;2.72;69.75
68248;SHT30;55064;49.636;12.164;2023-03-05T15:10:49;2.77;69.55
68248;SHT30;55064;49.636;12.164;2023-03-05T15:13:15;2.73;69.71
68248;SHT30;55064;49.636;12.164;2023-03-05T15:15:44;2.72;69.47
68248;SHT30;55064;49.636;12.164;2023-03-05T15:18:17;2.64;69.73
68248;SHT30;55064;49.636;12.164;2023-03-05T15:20:43;2.63;70.05
68248;SHT30;55064;49.636;12.164;2023-03-05T15:23:10;2.66;70.03
68248;SHT30;55064;49.636;12.164;2023-03-05T15:25:37;2.63;69.95
68248;SHT30;55064;49.636;12.164;2023-03-05T15:28:02;2.62;69.68
68248;SHT30;55064;49.636;12.164;2023-03-05T15:30:37;2.64;69.62
68248;SHT30;55064;49.636;12.164;2023-03-05T15:33:05;2.70;69.86
68248;SHT30;55064;49.636;12.164;2023-03-05T15:35:30;2.64;69.83
68248;SHT30;55064;49.636;12.164;2023-03-05T15:37:56;2.64;70.06
68248;SHT30;55064;49.636;12.164;2023-03-05T15:40:24;2.67;70.05
68248;SHT30;55064;49.636;12.164;2023-03-05T15:42:52;2.70;70.21
68248;SHT30;55064;49.636;12.164;2023-03-05T15:45:22;2.64;70.32
68248;SHT30;55064;49.636;12.164;2023-03-05T15:47:50;2.69;70.33
68248;SHT30;55064;49.636;12.164;2023-03-05T15:50:16;2.62;70.28
68248;SHT30;55064;49.636;12.164;2023-03-05T15:52:45;2.66;70.23
68248;SHT30;55064;49.636;12.164;2023-03-05T15:55:10;2.62;70.26
68248;SHT30;55064;49.636;12.164;2023-03-05T15:57:42;2.57;69.66
68248;SHT30;55064;49.636;12.164;2023-03-05T16:00:08;2.53;70.24
68248;SHT30;55064;49.636;12.164;2023-03-05T16:02:34;2.55;70.64
68248;SHT30;55064;49.636;12.164;2023-03-05T16:05:01;2.53;70.72
68248;SHT30;55064;49.636;12.164;2023-03-05T16:07:27;2.55;70.76
68248;SHT30;55064;49.636;12.164;2023-03-05T16:09:54;2.55;70.75
68248;SHT30;55064;49.636;12.164;2023-03-05T16:12:24;2.50;70.59
68248;SHT30;55064;49.636;12.164;2023-03-05T16:14:51;2.48;70.50
68248;SHT30;55064;49.636;12.164;2023-03-05T16:17:18;2.46;70.69
68248;SHT30;55064;49.636;12.164;2023-03-05T16:19:45;2.45;70.85
68248;SHT30;55064;49.636;12.164;2023-03-05T16:22:16;2.44;70.40
68248;SHT30;55064;49.636;12.164;2023-03-05T16:24:41;2.45;70.57
68248;SHT30;55064;49.636;12.164;2023-03-05T16:27:06;2.48;70.49
68248;SHT30;55064;49.636;12.164;2023-03-05T16:29:33;2.44;69.87
68248;SHT30;55064;49.636;12.164;2023-03-05T16:32:02;2.42;70.12
68248;SHT30;55064;49.636;12.164;2023-03-05T16:34:28;2.38;70.44
68248;SHT30;55064;49.636;12.164;2023-03-05T16:36:54;2.42;69.94
68248;SHT30;55064;49.636;12.164;2023-03-05T16:39:21;2.38;70.01
68248;SHT30;55064;49.636;12.164;2023-03-05T16:41:48;2.34;70.26
68248;SHT30;55064;49.636;12.164;2023-03-05T16:44:14;2.32;70.54
68248;SHT30;55064;49.636;12.164;2023-03-05T16:46:40;2.34;70.91
68248;SHT30;55064;49.636;12.164;2023-03-05T16:49:07;2.34;70.81
68248;SHT30;55064;49.636;12.164;2023-03-05T16:51:34;2.34;70.67
68248;SHT30;55064;49.636;12.164;2023-03-05T16:53:59;2.29;70.77
68248;SHT30;55064;49.636;12.164;2023-03-05T16:56:25;2.29;70.94
68248;SHT30;55064;49.636;12.164;2023-03-05T16:58:53;2.28;71.03
68248;SHT30;55064;49.636;12.164;2023-03-05T17:01:19;2.26;71.34
68248;SHT30;55064;49.636;12.164;2023-03-05T17:03:46;2.26;71.28
68248;SHT30;55064;49.636;12.164;2023-03-05T17:06:17;2.29;70.77
68248;SHT30;55064;49.636;12.164;2023-03-05T17:08:44;2.22;70.92
68248;SHT30;55064;49.636;12.164;2023-03-05T17:11:12;2.22;70.75
68248;SHT30;55064;49.636;12.164;2023-03-05T17:13:39;2.20;70.73
68248;SHT30;55064;49.636;12.164;2023-03-05T17:16:08;2.18;71.19
68248;SHT30;55064;49.636;12.164;2023-03-05T17:18:37;2.18;71.17
68248;SHT30;55064;49.636;12.164;2023-03-05T17:21:03;2.21;71.39
68248;SHT30;55064;49.636;12.164;2023-03-05T17:23:29;2.14;71.55
68248;SHT30;55064;49.636;12.164;2023-03-05T17:25:57;2.15;71.79
68248;SHT30;55064;49.636;12.164;2023-03-05T17:28:22;2.15;71.78
68248;SHT30;55064;49.636;12.164;2023-03-05T17:30:49;2.14;71.74
68248;SHT30;55064;49.636;12.164;2023-03-05T17:33:14;2.13;71.62
68248;SHT30;55064;49.636;12.164;2023-03-05T17:35:43;2.14;71.88
68248;SHT30;55064;49.636;12.164;2023-03-05T17:38:12;2.13;71.73
68248;SHT30;55064;49.636;12.164;2023-03-05T17:40:38;2.11;71.88
68248;SHT30;55064;49.636;12.164;2023-03-05T17:43:07;2.10;72.05
68248;SHT30;55064;49.636;12.164;2023-03-05T17:45:32;2.07;71.98
68248;SHT30;55064;49.636;12.164;2023-03-05T17:48:00;2.07;71.81
68248;SHT30;55064;49.636;12.164;2023-03-05T17:50:27;2.11;71.89
68248;SHT30;55064;49.636;12.164;2023-03-05T17:52:52;2.06;72.07
68248;SHT30;55064;49.636;12.164;2023-03-05T17:55:21;2.03;72.27
68248;SHT30;55064;49.636;12.164;2023-03-05T17:57:49;2.03;72.48
68248;SHT30;55064;49.636;12.164;2023-03-05T18:00:17;2.06;72.29
68248;SHT30;55064;49.636;12.164;2023-03-05T18:02:49;2.06;72.45
68248;SHT30;55064;49.636;12.164;2023-03-05T18:05:16;2.03;72.58
68248;SHT30;55064;49.636;12.164;2023-03-05T18:08:01;2.04;72.75
68248;SHT30;55064;49.636;12.164;2023-03-05T18:10:32;2.03;72.88
68248;SHT30;55064;49.636;12.164;2023-03-05T18:13:10;2.00;72.74
68248;SHT30;55064;49.636;12.164;2023-03-05T18:18:47;1.98;73.02
68248;SHT30;55064;49.636;12.164;2023-03-05T18:21:17;2.00;73.08
68248;SHT30;55064;49.636;12.164;2023-03-05T18:23:54;1.93;73.34
68248;SHT30;55064;49.636;12.164;2023-03-05T18:26:40;1.88;73.82